createdAt,value
2018-12-14T00:04:39.801Z,50.1
2018-12-14T00:09:37.773Z,50.2
2018-12-14T00:14:36.254Z,50.5
2018-12-14T00:19:34.189Z,50.7
2018-12-14T00:24:32.745Z,50.7
2018-12-14T00:29:31.244Z,50.8
2018-12-14T00:34:29.721Z,51.1
2018-12-14T00:39:27.709Z,51.9
2018-12-14T00:44:26.022Z,51.9
2018-12-14T00:49:24.124Z,52.2
2018-12-14T00:54:22.903Z,51.9
2018-12-14T00:59:21.468Z,52
2018-12-14T01:04:19.937Z,53
2018-12-14T01:09:18.384Z,52.7
2018-12-14T01:14:16.758Z,52.4
2018-12-14T01:19:15.042Z,53.5
2018-12-14T01:24:14.021Z,53.4
2018-12-14T01:29:12.320Z,54
2018-12-14T01:34:10.593Z,54.3
2018-12-14T01:39:08.785Z,54.3
2018-12-14T01:44:07.237Z,54.4
2018-12-14T01:49:05.063Z,55.7
2018-12-14T01:54:03.721Z,55.8
2018-12-14T01:59:02.261Z,56.6
2018-12-14T02:04:01.061Z,56.5
2018-12-14T02:08:59.431Z,57.2
2018-12-14T02:13:57.814Z,57
2018-12-14T02:18:56.145Z,57.1
2018-12-14T02:23:54.700Z,57.2
2018-12-14T02:28:53.297Z,57.3
2018-12-14T02:33:51.850Z,57.9
2018-12-14T02:38:50.046Z,58.7
2018-12-14T02:43:48.425Z,60
2018-12-14T02:48:47.003Z,60.8
2018-12-14T02:53:45.527Z,60.4
2018-12-14T02:58:44.260Z,60.4
2018-12-14T03:03:43.305Z,61.1
2018-12-14T03:08:41.772Z,61.4
2018-12-14T03:13:40.087Z,60.8
2018-12-14T03:18:38.776Z,60.9
2018-12-14T03:23:37.556Z,61.5
2018-12-14T03:28:36.010Z,61
2018-12-14T03:33:34.448Z,61.6
2018-12-14T03:38:33.119Z,61.1
2018-12-14T03:43:31.587Z,62
2018-12-14T03:48:30.239Z,62.2
2018-12-14T03:53:28.799Z,62.6
2018-12-14T03:58:27.545Z,62.7
2018-12-14T04:03:26.397Z,62.7
2018-12-14T04:08:25.144Z,63
2018-12-14T04:13:23.821Z,63.1
2018-12-14T04:18:22.337Z,64.1
2018-12-14T04:23:21.007Z,64.4
2018-12-14T04:28:19.591Z,64.4
2018-12-14T04:33:18.366Z,64.9
2018-12-14T04:38:16.655Z,65.2
2018-12-14T04:43:15.173Z,64.6
2018-12-14T04:48:13.686Z,64.8
2018-12-14T04:53:12.425Z,64.9
2018-12-14T04:58:10.876Z,64.7
2018-12-14T05:03:09.577Z,64.5
2018-12-14T05:08:07.843Z,64.4
2018-12-14T05:13:06.107Z,64.3
2018-12-14T05:18:04.793Z,64.2
2018-12-14T05:23:03.623Z,63.6
2018-12-14T05:28:02.142Z,63.5
2018-12-14T05:33:00.898Z,62.9
2018-12-14T05:37:59.599Z,64.1
2018-12-14T05:43:02.470Z,62.5
2018-12-14T05:47:57.345Z,62.3
2018-12-14T05:52:56.448Z,62.2
2018-12-14T05:57:55.259Z,62.3
2018-12-14T06:02:54.027Z,61.8
2018-12-14T06:07:52.833Z,62.3
2018-12-14T06:12:51.787Z,61.7
2018-12-14T06:17:50.274Z,62.5
2018-12-14T06:22:48.998Z,62
2018-12-14T06:27:47.712Z,62.2
2018-12-14T06:32:46.217Z,62.8
2018-12-14T06:37:45.003Z,62.5
2018-12-14T06:42:43.787Z,62.8
2018-12-14T06:47:42.461Z,62.6
2018-12-14T06:52:41.158Z,63
2018-12-14T06:57:40.043Z,62.7
2018-12-14T07:02:38.948Z,62.7
2018-12-14T07:07:38.194Z,62.6
2018-12-14T07:12:36.689Z,62.9
2018-12-14T07:17:35.287Z,63.2
2018-12-14T07:22:33.948Z,63.3
2018-12-14T07:27:32.650Z,63.5
2018-12-14T07:32:31.391Z,63.4
2018-12-14T07:37:29.983Z,63.4
2018-12-14T07:42:28.844Z,64
2018-12-14T07:47:27.566Z,64
2018-12-14T07:52:26.538Z,64.2
2018-12-14T07:57:25.382Z,64.3
2018-12-14T08:02:24.932Z,64.8
2018-12-14T08:07:23.608Z,65.4
2018-12-14T08:12:22.509Z,65.3
2018-12-14T08:17:21.139Z,65.4
2018-12-14T08:22:20.649Z,65.7
2018-12-14T08:27:19.498Z,66.2
2018-12-14T08:32:18.207Z,66.7
2018-12-14T08:37:16.894Z,66.4
2018-12-14T08:42:16.293Z,66.1
2018-12-14T08:47:14.685Z,66.4
2018-12-14T08:52:14.125Z,66.2
2018-12-14T08:57:13.133Z,66.6
2018-12-14T09:02:12.160Z,66.9
2018-12-14T09:07:11.066Z,65.6
2018-12-14T09:12:10.107Z,65.3
2018-12-14T09:17:09.181Z,65.8
2018-12-14T09:22:08.147Z,65.6
2018-12-14T09:27:07.202Z,65.8
2018-12-14T09:32:06.223Z,65.8
2018-12-14T09:37:04.939Z,65.9
2018-12-14T09:42:03.908Z,65.9
2018-12-14T09:47:02.547Z,66.3
2018-12-14T09:52:01.459Z,66.5
2018-12-14T09:57:00.484Z,66.3
2018-12-14T10:01:59.564Z,66.7
2018-12-14T10:06:58.888Z,66.9
2018-12-14T10:11:57.756Z,66.5
2018-12-14T10:16:56.697Z,66.1
2018-12-14T10:21:55.882Z,66.3
2018-12-14T10:26:54.917Z,66.6
2018-12-14T10:31:53.643Z,66.6
2018-12-14T10:36:52.533Z,66.6
2018-12-14T10:41:51.734Z,66.2
2018-12-14T10:46:50.692Z,66.5
2018-12-14T10:51:49.844Z,66.8
2018-12-14T10:56:48.449Z,66.7
2018-12-14T11:01:47.356Z,66.7
2018-12-14T11:06:46.751Z,66.9
2018-12-14T11:11:45.786Z,67.2
2018-12-14T11:16:45.174Z,66.9
2018-12-14T11:21:44.201Z,66.8
2018-12-14T11:26:43.031Z,66.8
2018-12-14T11:31:42.350Z,66.9
2018-12-14T11:36:41.496Z,66.9
2018-12-14T11:41:40.695Z,67
2018-12-14T11:46:39.910Z,66.8
2018-12-14T11:51:38.913Z,66.9
2018-12-14T11:56:37.826Z,67.1
2018-12-14T12:01:37.341Z,67.2
2018-12-14T12:06:36.774Z,67.2
2018-12-14T12:11:35.951Z,67.3
2018-12-14T12:16:35.379Z,67.5
2018-12-14T12:21:34.584Z,67.2
2018-12-14T12:26:33.916Z,67
2018-12-14T12:31:33.258Z,67
2018-12-14T12:36:32.268Z,67.1
2018-12-14T12:41:31.862Z,67.6
2018-12-14T12:46:31.300Z,67.5
2018-12-14T12:51:31.360Z,67.4
2018-12-14T12:56:30.235Z,67.4
2018-12-14T13:01:29.951Z,67.6
2018-12-14T13:06:30.069Z,67.5
2018-12-14T13:11:30.150Z,67.7
2018-12-14T13:16:30.252Z,68.6
2018-12-14T13:26:31.013Z,69
2018-12-14T13:31:30.982Z,68.8
2018-12-14T13:36:30.899Z,69
